Kezdőlap
METAR-TAF:

METAR-TAF

Repülőterek :

Colmar, Franciaország

földrajzi szélesség: 48-06-37N, földrajzi hosszúság: 7-21-33E, magasság: 191 m

Jelenlegi meteorológiai megfigyelések

A jelentés 40 perccel ezelõtt készült, 18:30 UTC
Délnyugati szél 13 kt
Hőmérséklet 14°C
Páratartalom 33%
Légköri nyomás 1028 hPa
Látótávolság 10 km, vagy több
felhőtlen 1500 m magasságban, és nincs gomolyfelhõ

METAR: LFGA 221830Z AUTO 22013KT CAVOK 14/M02 Q1028

Idő: 20:10 (19:10 UTC)


TAF: hiányzik

Meteorológiai megfigyelések és előrejelzések több, mint 4000 repülőtéren (METAR és TAF jelentéseket).

A térképen piros és sárga pontok jelzik az elérhető meteorológiai állomásokat.

Mozgassa az egeret a pont fölött, hogy megjelenjen az állomás neve.

Azután kattintson az időjárási megfigyelések és előrejelzések megtekintéséhez.

A térkép megváltoztatása: kattintson a fekete keresztel jelölt zöld gombra ráközelítéshez, a vonallal jelölt zöld gombra távolításhoz, vagy a zöld nyilakra a szomszédos térképek eléréséhez.


METAR-TAF: